KFOE/FOE METAR and TAF weather

Enter ICAO airport designator
Station Type Date Time Source
KFOE METAR 2018/12/15 03:53 UTC NOAA

KFOE 150353Z AUTO 34005KT 10SM CLR M02/M07 A3020 RMK AO2 SLP237 T10171072 TSNO


Station Type Date Time Source
KFOE Decoded METAR 2018/12/15 03:53 UTC NOAA

FORBES FIELD, KS, United States (KFOE) 38-56N 95-39W 320M
Dec 14, 2018 - 10:53 PM EST / 2018.12.15 0353 UTC
Wind: from the NNW (340 degrees) at 6 MPH (5 KT):0
Visibility: 10 mile(s):0
Sky conditions: clear
Temperature: 28.9 F (-1.7 C)
Windchill: 23 F (-5 C):1
Dew Point: 19.0 F (-7.2 C)
Relative Humidity: 66%
Pressure (altimeter): 30.2 in. Hg (1022 hPa)
ob: KFOE 150353Z AUTO 34005KT 10SM CLR M02/M07 A3020 RMK AO2 SLP237 T10171072 TSNO
cycle: 4

Station Type Date Time Source
KFOE TAF 2018/12/14 18:22 UTC NOAA

TAF KFOE 141720Z 1418/1518 01009KT P6SM SKC
FM150900 VRB03KT 5SM BR SKC
FM151500 VRB03KT P6SM SKC


Example: see airport list